createdAt,value
2023-05-05T00:01:20.030Z,85.73
2023-05-05T00:03:48.216Z,85.79
2023-05-05T00:06:16.744Z,85.61
2023-05-05T00:08:44.846Z,85.39
2023-05-05T00:11:13.106Z,85.85
2023-05-05T00:13:41.307Z,86.03
2023-05-05T00:16:09.597Z,85.83
2023-05-05T00:18:39.137Z,85.82
2023-05-05T00:21:07.781Z,86.38
2023-05-05T00:23:35.912Z,85.98
2023-05-05T00:26:04.344Z,86.19
2023-05-05T00:28:32.457Z,86.38
2023-05-05T00:31:00.730Z,85.94
2023-05-05T00:33:29.107Z,86.02
2023-05-05T00:35:59.060Z,86.13
2023-05-05T00:38:27.421Z,86.10
2023-05-05T00:40:55.717Z,86.46
2023-05-05T00:43:24.047Z,86.59
2023-05-05T00:46:02.147Z,86.30
2023-05-05T00:48:31.500Z,86.53
2023-05-05T00:51:02.138Z,86.48
2023-05-05T00:53:30.405Z,86.79
2023-05-05T00:55:58.764Z,86.69
2023-05-05T00:58:26.942Z,86.70
2023-05-05T01:00:55.085Z,86.58
2023-05-05T01:03:23.373Z,86.51
2023-05-05T01:05:59.976Z,86.61
2023-05-05T01:08:45.575Z,86.56
2023-05-05T01:11:20.922Z,86.71
2023-05-05T01:13:58.374Z,86.75
2023-05-05T01:16:30.426Z,87.00
2023-05-05T01:19:08.426Z,86.95
2023-05-05T01:21:42.401Z,87.08
2023-05-05T01:24:45.172Z,86.92
2023-05-05T01:27:31.949Z,87.01
2023-05-05T01:30:27.502Z,87.15
2023-05-05T01:33:04.081Z,87.49
2023-05-05T01:35:37.461Z,87.16
2023-05-05T01:38:09.303Z,87.03
2023-05-05T01:40:40.340Z,87.49
2023-05-05T01:43:11.638Z,87.25
2023-05-05T01:45:44.495Z,87.09
2023-05-05T01:48:17.950Z,86.96
2023-05-05T01:50:47.955Z,86.91
2023-05-05T01:53:21.282Z,86.83
2023-05-05T01:55:51.331Z,87.09
2023-05-05T01:58:20.806Z,87.05
2023-05-05T02:00:51.920Z,87.25
2023-05-05T02:03:23.853Z,87.26
2023-05-05T02:05:54.821Z,87.32
2023-05-05T02:08:24.775Z,87.68
2023-05-05T02:10:55.262Z,87.35
2023-05-05T02:13:26.236Z,87.37
2023-05-05T02:15:56.533Z,87.54
2023-05-05T02:18:28.602Z,87.29
2023-05-05T02:20:56.758Z,87.69
2023-05-05T02:23:24.959Z,87.59
2023-05-05T02:25:57.022Z,87.84
2023-05-05T02:28:32.806Z,87.85
2023-05-05T02:31:02.016Z,88.04
2023-05-05T02:33:35.018Z,87.61
2023-05-05T02:36:12.128Z,87.54
2023-05-05T02:39:03.611Z,87.43
2023-05-05T02:41:39.830Z,87.25
2023-05-05T02:44:16.771Z,87.37
2023-05-05T02:46:45.441Z,87.31
2023-05-05T02:49:16.370Z,87.17
2023-05-05T02:51:45.345Z,87.35
2023-05-05T02:54:22.003Z,87.59
2023-05-05T02:56:52.141Z,87.60
2023-05-05T02:59:28.195Z,87.31
2023-05-05T03:02:11.103Z,87.27
2023-05-05T03:04:44.250Z,87.16
2023-05-05T03:07:17.137Z,87.28
2023-05-05T03:09:57.075Z,87.17
2023-05-05T03:12:31.888Z,86.92
2023-05-05T03:15:12.411Z,87.22
2023-05-05T03:17:42.885Z,87.20
2023-05-05T03:20:16.322Z,87.15
2023-05-05T03:22:48.708Z,87.00
2023-05-05T03:25:17.473Z,87.29
2023-05-05T03:27:45.719Z,87.23
2023-05-05T03:30:16.822Z,87.14
2023-05-05T03:32:50.282Z,87.35
2023-05-05T03:35:21.197Z,87.39
2023-05-05T03:37:49.473Z,87.59
2023-05-05T03:40:19.230Z,87.48
2023-05-05T03:42:47.385Z,87.73
2023-05-05T03:45:15.791Z,87.91
2023-05-05T03:47:44.035Z,88.42
2023-05-05T03:50:12.812Z,88.15
2023-05-05T03:52:43.239Z,87.91
2023-05-05T03:55:12.226Z,87.79
2023-05-05T03:57:40.359Z,87.73
2023-05-05T04:00:10.916Z,87.64
2023-05-05T04:02:43.693Z,87.85
2023-05-05T04:05:15.246Z,87.66
2023-05-05T04:07:46.605Z,87.85
2023-05-05T04:10:16.752Z,87.96
2023-05-05T04:12:44.998Z,87.95
2023-05-05T04:15:13.208Z,88.32
2023-05-05T04:17:42.470Z,88.06
2023-05-05T04:20:11.518Z,87.99
2023-05-05T04:22:40.893Z,88.00
2023-05-05T04:25:11.714Z,87.83
2023-05-05T04:27:40.181Z,87.86
2023-05-05T04:30:10.896Z,87.93
2023-05-05T04:32:41.531Z,87.93
2023-05-05T04:35:11.254Z,87.71
2023-05-05T04:37:39.809Z,87.81
2023-05-05T04:40:11.326Z,87.78
2023-05-05T04:42:41.104Z,87.36
2023-05-05T04:45:10.548Z,87.22
2023-05-05T04:47:40.628Z,87.43
2023-05-05T04:50:10.527Z,87.81
2023-05-05T04:52:39.875Z,88.02
2023-05-05T04:55:12.001Z,87.94
2023-05-05T04:57:40.300Z,87.97
2023-05-05T05:00:10.273Z,87.97
2023-05-05T05:02:39.154Z,87.93
2023-05-05T05:05:08.502Z,87.93
2023-05-05T05:07:36.941Z,88.57
2023-05-05T05:10:05.615Z,88.58
2023-05-05T05:12:35.786Z,88.74
2023-05-05T05:15:04.271Z,88.44
2023-05-05T05:17:32.635Z,88.20
2023-05-05T05:20:04.965Z,88.06
2023-05-05T05:22:35.094Z,88.51
2023-05-05T05:25:04.420Z,88.19
2023-05-05T05:27:32.656Z,88.05
2023-05-05T05:30:02.369Z,88.26
2023-05-05T05:32:32.333Z,88.31
2023-05-05T05:35:00.831Z,88.00
2023-05-05T05:37:30.199Z,88.39
2023-05-05T05:39:59.210Z,88.29
2023-05-05T05:42:29.597Z,88.10
2023-05-05T05:44:58.813Z,87.97
2023-05-05T05:47:28.964Z,87.88
2023-05-05T05:49:58.300Z,87.33
2023-05-05T05:52:26.942Z,87.31
2023-05-05T05:54:55.517Z,87.17
2023-05-05T05:57:24.725Z,87.10
2023-05-05T05:59:53.998Z,87.29
2023-05-05T06:02:23.181Z,87.10
2023-05-05T06:04:53.347Z,87.11
2023-05-05T06:07:22.693Z,86.88
2023-05-05T06:09:51.322Z,86.86
2023-05-05T06:12:19.746Z,86.81
2023-05-05T06:14:48.147Z,86.34
2023-05-05T06:17:16.578Z,86.37
2023-05-05T06:19:44.845Z,86.02
2023-05-05T06:22:14.541Z,85.98
2023-05-05T06:24:43.082Z,86.31
2023-05-05T06:27:11.513Z,86.28
2023-05-05T06:29:39.694Z,86.06
2023-05-05T06:32:08.922Z,86.16
2023-05-05T06:34:37.261Z,86.20
2023-05-05T06:37:05.586Z,86.09
2023-05-05T06:39:35.312Z,85.86
2023-05-05T06:42:04.243Z,86.13
2023-05-05T06:44:34.643Z,85.98
2023-05-05T06:47:03.047Z,85.29
2023-05-05T06:49:31.310Z,85.24
2023-05-05T06:51:59.525Z,85.08
2023-05-05T06:54:27.673Z,84.05
2023-05-05T06:56:59.447Z,83.33
2023-05-05T06:59:27.918Z,82.78
2023-05-05T07:01:56.605Z,82.29
2023-05-05T07:04:24.806Z,82.29
2023-05-05T07:06:53.199Z,82.05
2023-05-05T07:09:21.503Z,81.52
2023-05-05T07:11:49.832Z,81.78
2023-05-05T07:14:20.618Z,82.16
2023-05-05T07:16:50.224Z,82.38
2023-05-05T07:19:18.546Z,80.92
2023-05-05T07:21:47.349Z,80.63
2023-05-05T07:24:15.613Z,80.52
2023-05-05T07:26:44.161Z,80.41
2023-05-05T07:29:12.437Z,80.53
2023-05-05T07:31:42.472Z,80.96
2023-05-05T07:34:10.605Z,80.30
2023-05-05T07:36:38.841Z,80.25
2023-05-05T07:39:07.623Z,80.65
2023-05-05T07:41:35.771Z,80.78
2023-05-05T07:44:04.090Z,77.99
2023-05-05T07:46:32.585Z,77.62
2023-05-05T07:49:02.327Z,77.89
2023-05-05T07:51:33.269Z,78.07
2023-05-05T07:54:02.777Z,77.94
2023-05-05T07:56:30.981Z,78.22
2023-05-05T07:58:59.198Z,78.62
2023-05-05T08:01:27.471Z,79.29
2023-05-05T08:03:55.881Z,79.11
2023-05-05T08:06:25.644Z,79.25
2023-05-05T08:08:53.931Z,78.62
2023-05-05T08:11:22.588Z,79.30
2023-05-05T08:13:50.956Z,78.22
2023-05-05T08:16:19.586Z,76.09
2023-05-05T08:18:47.844Z,72.75
2023-05-05T08:21:16.215Z,68.90
2023-05-05T08:23:45.867Z,68.98
2023-05-05T08:26:14.081Z,69.11
2023-05-05T08:28:42.157Z,70.70
2023-05-05T08:31:10.447Z,71.08
2023-05-05T08:33:38.630Z,72.99
2023-05-05T08:36:08.907Z,75.68
2023-05-05T08:38:37.539Z,76.83
2023-05-05T08:41:09.644Z,78.03
2023-05-05T08:43:37.921Z,79.46
2023-05-05T08:46:06.663Z,77.73
2023-05-05T08:48:36.815Z,78.32
2023-05-05T08:51:07.930Z,78.68
2023-05-05T08:53:46.010Z,78.17
2023-05-05T08:56:16.739Z,73.87
2023-05-05T08:58:46.598Z,73.79
2023-05-05T09:01:16.366Z,74.53
2023-05-05T09:03:45.097Z,73.93
2023-05-05T09:06:13.719Z,74.08
2023-05-05T09:08:42.693Z,74.96
2023-05-05T09:11:10.899Z,74.90
2023-05-05T09:13:47.909Z,73.33
2023-05-05T09:16:16.026Z,72.74
2023-05-05T09:18:45.720Z,72.54
2023-05-05T09:21:24.913Z,68.83
2023-05-05T09:24:08.923Z,68.17
2023-05-05T09:26:38.918Z,68.61
2023-05-05T09:29:08.594Z,69.00
2023-05-05T09:31:38.037Z,67.93
2023-05-05T09:34:16.098Z,69.25
2023-05-05T09:36:49.068Z,69.38
2023-05-05T09:39:19.666Z,67.27
2023-05-05T09:41:48.035Z,68.42
2023-05-05T09:44:18.301Z,67.04
2023-05-05T09:46:52.486Z,66.90
2023-05-05T09:49:25.704Z,66.03
2023-05-05T09:51:54.455Z,66.88
2023-05-05T09:54:27.834Z,66.83
2023-05-05T09:56:58.839Z,68.16
2023-05-05T09:59:28.482Z,69.60
2023-05-05T10:02:12.104Z,68.73
2023-05-05T10:04:41.489Z,68.77
2023-05-05T10:07:09.710Z,66.37
2023-05-05T10:09:37.961Z,66.83
2023-05-05T10:12:06.905Z,68.26
2023-05-05T10:14:37.486Z,66.81
2023-05-05T10:17:06.499Z,67.14
2023-05-05T10:19:37.172Z,68.01
2023-05-05T10:22:08.303Z,68.85
2023-05-05T10:24:41.284Z,69.00
2023-05-05T10:27:16.530Z,68.64
2023-05-05T10:29:53.494Z,69.94
2023-05-05T10:32:47.319Z,69.43
2023-05-05T10:35:18.354Z,68.79
2023-05-05T10:37:47.696Z,67.62
2023-05-05T10:40:16.775Z,66.93
2023-05-05T10:42:45.447Z,66.83
2023-05-05T10:45:15.120Z,66.62
2023-05-05T10:47:44.571Z,66.08
2023-05-05T10:50:18.620Z,66.67
2023-05-05T10:52:57.005Z,66.43
2023-05-05T10:55:34.195Z,66.19
2023-05-05T10:58:02.988Z,67.86
2023-05-05T11:00:54.497Z,68.56
2023-05-05T11:03:23.812Z,67.63
2023-05-05T11:06:12.554Z,68.53
2023-05-05T11:08:42.725Z,67.67
2023-05-05T11:11:13.290Z,68.75
2023-05-05T11:13:42.461Z,67.50
2023-05-05T11:16:48.219Z,68.10
2023-05-05T11:19:48.553Z,69.03
2023-05-05T11:22:17.750Z,67.90
2023-05-05T11:24:47.298Z,67.33
2023-05-05T11:27:15.686Z,66.94
2023-05-05T11:30:06.828Z,67.40
2023-05-05T11:32:37.148Z,67.10
2023-05-05T11:35:06.344Z,66.66
2023-05-05T11:37:36.188Z,67.28
2023-05-05T11:40:14.817Z,67.15
2023-05-05T11:42:43.303Z,66.94
2023-05-05T11:45:22.835Z,67.25
2023-05-05T11:47:52.741Z,66.75
2023-05-05T11:50:23.257Z,67.44
2023-05-05T11:52:51.720Z,66.85
2023-05-05T11:55:25.807Z,66.72
2023-05-05T11:57:54.701Z,67.01
2023-05-05T12:00:33.412Z,67.08
2023-05-05T12:03:03.915Z,66.38
2023-05-05T12:05:35.766Z,66.97
2023-05-05T12:08:05.122Z,67.15
2023-05-05T12:10:33.479Z,66.54
2023-05-05T12:13:01.683Z,67.29
2023-05-05T12:15:31.105Z,66.43
2023-05-05T12:18:02.135Z,65.73
2023-05-05T12:20:34.612Z,65.08
2023-05-05T12:23:04.591Z,66.51
2023-05-05T12:25:38.287Z,64.96
2023-05-05T12:28:08.003Z,65.12
2023-05-05T12:30:36.689Z,65.89
2023-05-05T12:33:06.703Z,66.75
2023-05-05T12:35:37.175Z,67.40
2023-05-05T12:38:05.469Z,67.31
2023-05-05T12:40:47.793Z,66.72
2023-05-05T12:43:25.581Z,66.73
2023-05-05T12:46:05.457Z,66.12
2023-05-05T12:48:34.420Z,66.97
2023-05-05T12:51:23.069Z,66.68
2023-05-05T12:54:03.531Z,66.68
2023-05-05T12:56:36.335Z,66.04
2023-05-05T12:59:06.313Z,65.58
2023-05-05T13:01:35.639Z,65.57
2023-05-05T13:04:14.567Z,66.01
2023-05-05T13:06:46.155Z,66.80
2023-05-05T13:09:27.710Z,66.32
2023-05-05T13:11:56.631Z,66.62
2023-05-05T13:14:24.972Z,66.35
2023-05-05T13:16:53.987Z,65.81
2023-05-05T13:19:23.757Z,65.56
2023-05-05T13:21:53.839Z,65.38
2023-05-05T13:24:31.122Z,65.59
2023-05-05T13:27:07.322Z,64.89
2023-05-05T13:29:35.567Z,65.39
2023-05-05T13:32:04.191Z,64.71
2023-05-05T13:34:32.459Z,64.68
2023-05-05T13:37:01.987Z,64.58
2023-05-05T13:39:30.292Z,63.39
2023-05-05T13:41:58.502Z,62.70
2023-05-05T13:44:26.752Z,62.85
2023-05-05T13:46:55.004Z,61.79
2023-05-05T13:49:23.229Z,62.82
2023-05-05T13:51:51.360Z,63.66
2023-05-05T13:54:21.251Z,63.79
2023-05-05T13:56:49.567Z,63.77
2023-05-05T13:59:17.714Z,64.28
2023-05-05T14:01:46.010Z,64.07
2023-05-05T14:04:14.290Z,63.94
2023-05-05T14:06:42.512Z,64.36
2023-05-05T14:09:10.970Z,64.82
2023-05-05T14:11:41.167Z,63.84
2023-05-05T14:14:09.458Z,64.22
2023-05-05T14:16:37.712Z,63.75
2023-05-05T14:19:05.876Z,64.52
2023-05-05T14:21:34.066Z,65.38
2023-05-05T14:24:02.392Z,65.88
2023-05-05T14:26:30.639Z,66.21
2023-05-05T14:29:02.983Z,66.24
2023-05-05T14:31:31.169Z,66.48
2023-05-05T14:33:59.388Z,65.58
2023-05-05T14:36:27.557Z,65.22
2023-05-05T14:38:56.144Z,64.60
2023-05-05T14:41:24.489Z,65.06
2023-05-05T14:43:52.893Z,64.58
2023-05-05T14:46:22.688Z,64.90
2023-05-05T14:48:50.965Z,65.92
2023-05-05T14:51:19.216Z,66.10
2023-05-05T14:53:47.692Z,66.55
2023-05-05T14:56:15.831Z,66.22
2023-05-05T14:58:44.036Z,67.04
2023-05-05T15:01:12.271Z,66.96
2023-05-05T15:03:42.219Z,67.32
2023-05-05T15:06:10.601Z,67.40
2023-05-05T15:08:39.187Z,67.40
2023-05-05T15:11:07.763Z,67.40
2023-05-05T15:13:38.663Z,67.39
2023-05-05T15:16:07.626Z,67.78
2023-05-05T15:18:36.596Z,67.88
2023-05-05T15:21:06.303Z,68.34
2023-05-05T15:23:34.865Z,68.17
2023-05-05T15:26:03.351Z,67.80
2023-05-05T15:28:31.740Z,66.78
2023-05-05T15:31:02.151Z,66.88
2023-05-05T15:33:31.631Z,66.48
2023-05-05T15:35:59.872Z,65.70
2023-05-05T15:38:30.729Z,66.55
2023-05-05T15:40:58.959Z,67.18
2023-05-05T15:43:27.204Z,67.40
2023-05-05T15:45:55.461Z,67.07
2023-05-05T15:48:23.625Z,66.49
2023-05-05T15:50:51.918Z,67.04
2023-05-05T15:53:20.131Z,67.34
2023-05-05T15:55:49.960Z,67.36
2023-05-05T15:58:18.168Z,66.90
2023-05-05T16:00:46.416Z,66.89
2023-05-05T16:03:14.711Z,67.21
2023-05-05T16:05:43.489Z,67.50
2023-05-05T16:08:11.586Z,68.06
2023-05-05T16:10:39.799Z,69.03
2023-05-05T16:13:09.518Z,69.11
2023-05-05T16:15:37.943Z,68.85
2023-05-05T16:18:06.211Z,69.29
2023-05-05T16:20:34.540Z,69.36
2023-05-05T16:23:02.782Z,69.63
2023-05-05T16:25:31.108Z,69.70
2023-05-05T16:28:00.270Z,69.20
2023-05-05T16:30:30.022Z,69.38
2023-05-05T16:32:58.223Z,70.39
2023-05-05T16:35:26.506Z,70.69
2023-05-05T16:37:55.104Z,70.83
2023-05-05T16:40:23.468Z,70.66
2023-05-05T16:42:51.818Z,71.04
2023-05-05T16:45:20.102Z,71.75
2023-05-05T16:47:49.724Z,72.35
2023-05-05T16:50:19.255Z,73.23
2023-05-05T16:52:47.529Z,73.07
2023-05-05T16:55:15.925Z,73.43
2023-05-05T16:57:44.132Z,73.09
2023-05-05T17:00:13.531Z,73.39
2023-05-05T17:02:41.848Z,73.43
2023-05-05T17:05:12.192Z,73.81
2023-05-05T17:07:40.933Z,74.13
2023-05-05T17:10:10.272Z,74.96
2023-05-05T17:12:38.960Z,75.12
2023-05-05T17:15:08.995Z,75.56
2023-05-05T17:17:37.345Z,75.96
2023-05-05T17:20:09.241Z,75.88
2023-05-05T17:22:38.913Z,76.35
2023-05-05T17:25:08.201Z,76.08
2023-05-05T17:27:36.484Z,76.22
2023-05-05T17:30:05.582Z,76.13
2023-05-05T17:32:33.764Z,76.59
2023-05-05T17:35:02.161Z,76.66
2023-05-05T17:37:30.936Z,76.47
2023-05-05T17:40:00.690Z,76.90
2023-05-05T17:42:32.997Z,76.70
2023-05-05T17:45:01.432Z,76.43
2023-05-05T17:47:30.243Z,76.26
2023-05-05T17:49:59.036Z,76.71
2023-05-05T17:52:27.204Z,76.65
2023-05-05T17:54:55.373Z,76.93
2023-05-05T17:57:24.995Z,77.40
2023-05-05T17:59:53.825Z,77.48
2023-05-05T18:02:22.073Z,77.48
2023-05-05T18:04:50.451Z,77.70
2023-05-05T18:07:18.843Z,77.93
2023-05-05T18:09:47.080Z,78.15
2023-05-05T18:12:15.276Z,78.26
2023-05-05T18:14:45.052Z,78.05
2023-05-05T18:17:13.614Z,78.84
2023-05-05T18:19:46.660Z,78.73
2023-05-05T18:22:17.176Z,78.77
2023-05-05T18:24:45.505Z,79.64
2023-05-05T18:27:13.663Z,80.39
2023-05-05T18:29:44.885Z,80.60
2023-05-05T18:32:13.165Z,80.96
2023-05-05T18:34:41.459Z,81.00
2023-05-05T18:37:10.078Z,80.63
2023-05-05T18:39:38.507Z,80.96
2023-05-05T18:42:08.037Z,80.69
2023-05-05T18:44:36.176Z,80.66
2023-05-05T18:47:06.884Z,81.18
2023-05-05T18:49:35.325Z,81.58
2023-05-05T18:52:03.525Z,82.20
2023-05-05T18:54:31.896Z,82.40
2023-05-05T18:57:01.216Z,82.41
2023-05-05T18:59:29.356Z,81.98
2023-05-05T19:01:57.671Z,82.52
2023-05-05T19:04:31.164Z,82.80
2023-05-05T19:06:59.836Z,82.94
2023-05-05T19:09:28.062Z,83.40
2023-05-05T19:11:56.680Z,83.63
2023-05-05T19:14:24.946Z,83.45
2023-05-05T19:16:55.957Z,83.57
2023-05-05T19:19:24.442Z,84.38
2023-05-05T19:21:54.205Z,84.54
2023-05-05T19:24:22.562Z,84.36
2023-05-05T19:26:50.964Z,84.26
2023-05-05T19:29:19.467Z,84.86
2023-05-05T19:31:47.847Z,85.61
2023-05-05T19:34:16.111Z,86.13
2023-05-05T19:36:44.336Z,86.41
2023-05-05T19:39:15.700Z,87.10
2023-05-05T19:41:44.203Z,87.68
2023-05-05T19:44:12.407Z,87.58
2023-05-05T19:46:41.274Z,87.14
2023-05-05T19:49:09.675Z,87.48
2023-05-05T19:51:38.045Z,87.20
2023-05-05T19:54:06.357Z,87.37
2023-05-05T19:56:36.478Z,86.97
2023-05-05T19:59:06.445Z,87.05
2023-05-05T20:01:37.186Z,86.73
2023-05-05T20:04:05.618Z,86.74
2023-05-05T20:06:34.295Z,86.91
2023-05-05T20:09:02.564Z,86.93
2023-05-05T20:11:31.197Z,87.26
2023-05-05T20:14:01.074Z,87.47
2023-05-05T20:16:29.738Z,87.48
2023-05-05T20:18:57.992Z,87.33
2023-05-05T20:21:27.239Z,87.19
2023-05-05T20:23:55.711Z,87.31
2023-05-05T20:26:24.604Z,87.39
2023-05-05T20:28:52.886Z,87.41
2023-05-05T20:31:22.905Z,87.30
2023-05-05T20:33:51.398Z,87.66
2023-05-05T20:36:20.087Z,87.65
2023-05-05T20:38:48.304Z,87.34
2023-05-05T20:41:16.583Z,87.14
2023-05-05T20:43:44.866Z,87.51
2023-05-05T20:46:13.406Z,87.20
2023-05-05T20:48:43.470Z,86.77
2023-05-05T20:51:11.714Z,86.94
2023-05-05T20:53:39.929Z,86.76
2023-05-05T20:56:09.207Z,87.05
2023-05-05T20:58:37.538Z,87.10
2023-05-05T21:01:05.790Z,87.41
2023-05-05T21:03:34.134Z,87.71
2023-05-05T21:06:05.024Z,87.84
2023-05-05T21:08:33.337Z,87.68
2023-05-05T21:11:01.707Z,87.47
2023-05-05T21:13:30.647Z,87.05
2023-05-05T21:15:58.879Z,87.17
2023-05-05T21:18:27.740Z,87.15
2023-05-05T21:20:56.314Z,86.95
2023-05-05T21:23:26.270Z,86.56
2023-05-05T21:25:54.459Z,85.99
2023-05-05T21:28:22.696Z,86.10
2023-05-05T21:31:10.321Z,86.44
2023-05-05T21:33:40.215Z,86.23
2023-05-05T21:36:08.796Z,86.67
2023-05-05T21:38:38.653Z,87.02
2023-05-05T21:41:06.940Z,86.80
2023-05-05T21:43:35.203Z,86.87
2023-05-05T21:46:04.625Z,87.02
2023-05-05T21:48:33.217Z,87.41
2023-05-05T21:51:01.373Z,86.87
2023-05-05T21:53:29.934Z,87.27
2023-05-05T21:55:59.446Z,87.66
2023-05-05T21:58:27.908Z,87.65
2023-05-05T22:00:56.329Z,87.93
2023-05-05T22:03:26.227Z,87.99
2023-05-05T22:05:54.582Z,88.27
2023-05-05T22:08:23.035Z,88.12
2023-05-05T22:10:51.558Z,88.26
2023-05-05T22:13:21.427Z,87.96
2023-05-05T22:15:49.877Z,88.76
2023-05-05T22:18:18.272Z,89.00
2023-05-05T22:20:46.945Z,89.87
2023-05-05T22:23:16.265Z,90.03
2023-05-05T22:25:44.815Z,90.66
2023-05-05T22:28:13.018Z,91.59
2023-05-05T22:30:42.648Z,91.81
2023-05-05T22:33:11.007Z,91.56
2023-05-05T22:35:39.561Z,91.32
2023-05-05T22:38:08.005Z,91.13
2023-05-05T22:40:36.252Z,90.84
2023-05-05T22:43:04.624Z,91.15
2023-05-05T22:45:32.949Z,90.77
2023-05-05T22:48:03.020Z,90.85
2023-05-05T22:50:31.470Z,91.09
2023-05-05T22:52:59.779Z,90.42
2023-05-05T22:55:27.918Z,90.26
2023-05-05T22:57:56.131Z,90.26
2023-05-05T23:00:24.352Z,90.26
2023-05-05T23:02:52.840Z,90.38
2023-05-05T23:05:22.508Z,90.13
2023-05-05T23:07:50.896Z,90.40
2023-05-05T23:10:19.174Z,90.44
2023-05-05T23:12:47.434Z,90.38
2023-05-05T23:15:15.860Z,90.46
2023-05-05T23:17:44.196Z,90.94
2023-05-05T23:20:13.362Z,90.82
2023-05-05T23:22:43.301Z,90.48
2023-05-05T23:25:12.076Z,90.27
2023-05-05T23:27:41.423Z,90.49
2023-05-05T23:30:10.564Z,90.58
2023-05-05T23:32:38.992Z,90.87
2023-05-05T23:35:08.334Z,91.12
2023-05-05T23:37:36.786Z,92.06
2023-05-05T23:40:08.082Z,92.37
2023-05-05T23:42:37.617Z,92.90
2023-05-05T23:45:06.339Z,93.36
2023-05-05T23:47:34.630Z,93.39
2023-05-05T23:50:04.419Z,92.88
2023-05-05T23:52:33.034Z,93.20
2023-05-05T23:55:01.504Z,93.49
2023-05-05T23:57:31.103Z,93.80
2023-05-05T23:59:59.474Z,93.80
